Time;durP1;ratioP1;P1;durP2;ratioP2;P2;SDS_P1;SDS_P2;PMS_P1;PMS_P2;Temp;Humidity;BMP_temperature;BMP_pressure;BME280_temperature;BME280_humidity;BME280_pressure;Samples;Min_cycle;Max_cycle;Signal;HPM_P1;HPM_P2
2023/06/14 00:09:47;;;;;;;10.20;5.60;;;;;;;;;;20831370;28;20646;-71
2023/06/14 00:19:50;;;;;;;8.40;5.80;;;;;;;;;;20831070;28;20207;-68
2023/06/14 00:29:52;;;;;;;7.30;5.80;;;;;;;;;;20829935;28;20241;-62
2023/06/14 00:39:54;;;;;;;8.83;6.30;;;;;;;;;;20829727;28;20639;-63
2023/06/14 00:49:56;;;;;;;8.77;6.07;;;18.10;53.80;;;;;;20846513;28;20323;-63
2023/06/14 00:59:58;;;;;;;8.83;5.80;;;;;;;;;;20845943;28;20679;-64
2023/06/14 01:10:28;;;;;;;8.87;6.97;;;18.10;54.80;;;;;;20844365;28;20626;-64
2023/06/14 01:20:32;;;;;;;7.73;6.00;;;18.10;54.50;;;;;;20844117;28;20209;-63
2023/06/14 01:30:35;;;;;;;6.93;5.67;;;17.50;54.00;;;;;;20843500;28;20674;-63
2023/06/14 01:40:37;;;;;;;11.37;5.33;;;;;;;;;;20842616;28;20638;-73
2023/06/14 01:50:40;;;;;;;9.60;5.27;;;;;;;;;;20841742;28;20243;-74
2023/06/14 02:00:43;;;;;;;9.73;5.90;;;;;;;;;;20840636;28;20289;-73
2023/06/14 02:10:45;;;;;;;7.33;5.33;;;18.00;54.30;;;;;;20840033;28;20239;-73
2023/06/14 02:20:47;;;;;;;9.43;5.20;;;;;;;;;;20839320;28;20204;-73
2023/06/14 02:30:49;;;;;;;7.97;4.90;;;17.90;54.30;;;;;;20838809;28;20328;-74
2023/06/14 02:40:51;;;;;;;10.17;5.17;;;;;;;;;;20837911;28;20303;-74
2023/06/14 02:50:54;;;;;;;12.80;5.40;;;;;;;;;;20836950;28;20279;-64
2023/06/14 03:00:56;;;;;;;11.50;5.33;;;;;;;;;;20836694;28;20205;-64
2023/06/14 03:10:58;;;;;;;9.23;5.70;;;;;;;;;;20834329;28;20236;-65
2023/06/14 03:21:00;;;;;;;10.40;5.97;;;;;;;;;;20834835;28;20211;-63
2023/06/14 03:31:02;;;;;;;9.87;6.00;;;;;;;;;;20834728;28;20286;-64
2023/06/14 03:41:05;;;;;;;9.27;6.03;;;;;;;;;;20834961;28;20556;-63
2023/06/14 03:51:07;;;;;;;10.13;5.90;;;;;;;;;;20833123;28;20235;-63
2023/06/14 04:01:09;;;;;;;8.37;5.90;;;;;;;;;;20831757;28;20203;-64
2023/06/14 04:11:11;;;;;;;9.43;5.30;;;;;;;;;;20831228;28;20238;-63
2023/06/14 04:21:13;;;;;;;9.27;5.57;;;;;;;;;;20830156;28;20604;-62
2023/06/14 04:31:16;;;;;;;9.97;5.83;;;;;;;;;;20830157;28;20630;-63
2023/06/14 04:41:19;;;;;;;10.10;6.50;;;;;;;;;;20828724;28;20569;-64
2023/06/14 04:58:46;;;;;;;14.17;6.10;;;;;;;;;;21495854;27;20566;-64
2023/06/14 05:12:38;;;;;;;13.50;7.07;;;;;;;;;;21322550;27;20304;-65
2023/06/14 05:22:40;;;;;;;11.67;5.43;;;;;;;;;;21236451;28;20230;-62
2023/06/14 05:32:42;;;;;;;12.63;5.20;;;;;;;;;;21235878;28;20235;-69
2023/06/14 05:42:45;;;;;;;8.07;4.77;;;;;;;;;;21234687;28;20209;-72
2023/06/14 05:52:46;;;;;;;9.40;5.10;;;19.60;52.60;;;;;;21234266;28;20217;-72
2023/06/14 06:02:49;;;;;;;11.07;5.43;;;;;;;;;;21217336;28;20608;-71
2023/06/14 06:12:52;;;;;;;8.27;4.67;;;19.60;52.40;;;;;;21238432;28;20211;-70
2023/06/14 06:22:54;;;;;;;9.83;4.80;;;19.70;53.00;;;;;;21180365;28;20213;-71
2023/06/14 06:32:55;;;;;;;8.63;5.07;;;19.90;52.50;;;;;;21173878;28;20523;-67
2023/06/14 06:42:57;;;;;;;7.80;5.00;;;20.10;52.40;;;;;;21172319;28;20295;-68
2023/06/14 06:52:59;;;;;;;36.23;21.23;;;20.10;52.80;;;;;;21171587;28;20558;-65
2023/06/14 07:03:03;;;;;;;7.30;4.90;;;20.40;52.60;;;;;;21170445;28;20244;-64
2023/06/14 07:13:05;;;;;;;5.70;5.20;;;20.70;51.60;;;;;;21152590;28;20212;-65
2023/06/14 07:23:10;;;;;;;6.20;5.37;;;20.70;52.10;;;;;;21169221;28;20249;-62
2023/06/14 07:33:13;;;;;;;9.10;5.47;;;20.90;51.80;;;;;;21167954;28;20661;-65
2023/06/14 07:43:15;;;;;;;7.27;4.97;;;21.10;51.40;;;;;;21168071;28;20627;-62
2023/06/14 07:53:17;;;;;;;8.33;5.13;;;21.30;51.20;;;;;;21167362;28;20229;-62
2023/06/14 08:03:19;;;;;;;9.63;5.20;;;21.50;49.90;;;;;;21148482;28;20263;-62
2023/06/14 08:13:21;;;;;;;13.53;4.80;;;21.50;50.40;;;;;;21165623;28;20286;-63
2023/06/14 08:23:23;;;;;;;11.13;5.43;;;21.70;49.50;;;;;;21164964;28;20324;-71
2023/06/14 08:33:25;;;;;;;6.13;4.70;;;21.80;49.80;;;;;;21166405;28;20292;-71
2023/06/14 08:43:27;;;;;;;9.27;5.37;;;22.00;49.50;;;;;;21151762;28;20692;-66
2023/06/14 08:53:34;;;;;;;7.93;5.13;;;22.10;49.40;;;;;;21163194;28;20225;-62
2023/06/14 09:03:43;;;;;;;8.93;4.70;;;22.30;49.20;;;;;;21162850;28;20700;-68
2023/06/14 09:13:46;;;;;;;17.57;8.80;;;22.60;48.80;;;;;;21162100;28;20292;-68
2023/06/14 09:23:48;;;;;;;9.17;4.30;;;22.60;48.30;;;;;;21161755;28;20683;-72
2023/06/14 09:33:50;;;;;;;8.43;4.60;;;22.50;47.70;;;;;;21161625;28;20262;-69
2023/06/14 09:43:57;;;;;;;5.90;4.17;;;22.40;47.20;;;;;;21160738;28;20269;-72
2023/06/14 09:54:09;;;;;;;10.10;4.53;;;22.40;47.10;;;;;;21167946;28;20201;-65
2023/06/14 10:04:14;;;;;;;8.80;4.27;;;22.60;46.30;;;;;;21175759;28;20674;-71
2023/06/14 10:14:18;;;;;;;8.70;4.00;;;23.10;45.60;;;;;;21175693;28;20220;-63
2023/06/14 10:24:25;;;;;;;5.80;3.80;;;23.30;45.00;;;;;;21174659;28;20739;-64
2023/06/14 10:34:28;;;;;;;6.20;3.77;;;24.00;44.40;;;;;;21173651;28;20714;-62
2023/06/14 10:44:31;;;;;;;5.50;3.63;;;24.00;43.50;;;;;;21173109;28;20237;-63
2023/06/14 10:54:32;;;;;;;5.33;3.80;;;24.00;43.20;;;;;;21172049;28;20202;-68
2023/06/14 11:04:53;;;;;;;3.80;3.40;;;24.50;43.00;;;;;;21171752;28;20238;-72
2023/06/14 11:14:55;;;;;;;19.07;9.23;;;24.60;42.70;;;;;;21171773;28;20206;-63
2023/06/14 11:24:57;;;;;;;8.83;3.27;;;24.10;42.50;;;;;;21151415;28;20600;-69
2023/06/14 11:35:00;;;;;;;8.27;3.50;;;24.40;42.10;;;;;;21168872;28;20714;-62
2023/06/14 11:45:03;;;;;;;9.13;4.00;;;24.80;41.20;;;;;;21167676;28;20234;-70
2023/06/14 11:55:16;;;;;;;9.67;3.80;;;24.60;40.90;;;;;;21166932;28;20721;-66
2023/06/14 12:05:21;;;;;;;6.87;2.97;;;24.70;40.60;;;;;;21165476;28;20282;-68
2023/06/14 12:15:23;;;;;;;47.87;23.67;;;25.10;40.00;;;;;;21165023;28;20251;-69
2023/06/14 12:25:33;;;;;;;4.43;3.10;;;25.50;38.90;;;;;;21147213;28;20321;-66
2023/06/14 12:35:35;;;;;;;4.07;2.73;;;25.60;38.80;;;;;;21115900;28;20211;-70
2023/06/14 12:45:37;;;;;;;6.47;2.70;;;25.80;38.40;;;;;;21112434;28;20230;-71
2023/06/14 12:55:39;;;;;;;3.13;2.70;;;25.80;38.20;;;;;;21075871;28;20675;-66
2023/06/14 13:05:41;;;;;;;8.80;3.03;;;25.80;37.70;;;;;;21077069;28;20245;-65
2023/06/14 13:15:45;;;;;;;5.83;3.13;;;25.80;37.50;;;;;;21077809;28;20676;-66
2023/06/14 13:25:49;;;;;;;5.20;2.93;;;26.00;37.20;;;;;;21079160;28;20627;-68
2023/06/14 13:35:52;;;;;;;74.60;32.50;;;26.10;37.30;;;;;;21093848;28;20249;-67
2023/06/14 13:45:54;;;;;;;6.67;3.07;;;26.00;37.30;;;;;;21095165;28;20234;-68
2023/06/14 13:55:56;;;;;;;6.37;3.30;;;26.40;36.50;;;;;;21095275;28;20662;-70
2023/06/14 14:05:58;;;;;;;3.90;2.80;;;26.70;36.00;;;;;;21091328;28;20239;-70
2023/06/14 14:15:59;;;;;;;4.87;3.07;;;26.70;35.80;;;;;;21072134;28;20213;-69
2023/06/14 14:26:04;;;;;;;8.70;2.87;;;26.40;35.80;;;;;;21089027;28;20230;-66
2023/06/14 14:36:06;;;;;;;3.03;2.60;;;26.60;36.50;;;;;;21087843;28;20238;-67
2023/06/14 14:46:08;;;;;;;4.00;2.47;;;27.60;35.00;;;;;;21088507;28;20234;-70
2023/06/14 14:56:11;;;;;;;2.67;2.40;;;27.30;34.60;;;;;;21087763;28;20224;-66
2023/06/14 15:06:13;;;;;;;5.78;2.60;;;28.80;33.30;;;;;;21086675;28;20238;-67
2023/06/14 15:16:15;;;;;;;4.65;2.78;;;28.90;32.50;;;;;;21086184;28;20289;-66
2023/06/14 15:26:16;;;;;;;3.30;2.60;;;27.50;33.60;;;;;;21085029;28;20240;-61
2023/06/14 15:36:18;;;;;;;3.67;2.63;;;26.90;34.00;;;;;;21085601;28;20195;-62
2023/06/14 15:46:22;;;;;;;4.27;2.60;;;27.80;33.70;;;;;;21084095;28;20325;-64
2023/06/14 15:56:25;;;;;;;5.07;2.73;;;27.30;33.80;;;;;;21082246;28;20234;-61
2023/06/14 16:06:27;;;;;;;4.30;2.45;;;26.80;34.60;;;;;;21081831;28;20246;-62
2023/06/14 16:16:29;;;;;;;3.85;2.70;;;29.80;33.00;;;;;;21081977;28;20202;-63
2023/06/14 16:26:31;;;;;;;2.28;2.08;;;31.40;31.10;;;;;;21097259;28;20238;-62
2023/06/14 16:36:32;;;;;;;5.45;2.40;;;32.70;29.70;;;;;;21103662;28;20813;-62
2023/06/14 16:46:35;;;;;;;3.42;2.40;;;30.60;30.90;;;;;;21124277;28;20234;-65
2023/06/14 16:56:37;;;;;;;5.95;2.22;;;30.60;31.30;;;;;;21078303;28;20202;-68
2023/06/14 17:06:38;;;;;;;3.03;2.30;;;30.50;31.00;;;;;;21077387;28;20245;-69
2023/06/14 17:16:40;;;;;;;2.80;2.03;;;32.00;30.00;;;;;;21097047;28;20202;-69
2023/06/14 17:26:42;;;;;;;3.33;2.33;;;37.00;27.00;;;;;;21107492;28;20235;-65
2023/06/14 17:36:44;;;;;;;2.22;2.03;;;36.70;26.70;;;;;;21109802;28;20237;-72
2023/06/14 17:46:46;;;;;;;3.17;2.20;;;41.00;24.70;;;;;;21118246;28;20256;-65
2023/06/14 17:56:48;;;;;;;4.40;2.30;;;41.70;24.00;;;;;;21117662;28;20218;-64
2023/06/14 18:06:51;;;;;;;3.78;2.42;;;38.70;25.10;;;;;;21112426;28;20235;-65
2023/06/14 18:16:52;;;;;;;5.22;2.45;;;34.40;27.40;;;;;;21128065;28;20650;-63
2023/06/14 18:26:54;;;;;;;3.85;2.47;;;30.00;30.40;;;;;;21164811;28;20308;-66
2023/06/14 18:36:57;;;;;;;6.07;2.80;;;27.80;32.90;;;;;;21163391;28;20212;-63
2023/06/14 18:46:59;;;;;;;5.50;2.97;;;26.50;34.70;;;;;;21128065;28;20321;-61
2023/06/14 18:57:01;;;;;;;5.40;2.83;;;25.60;36.70;;;;;;21141489;28;20206;-61
2023/06/14 19:07:05;;;;;;;8.30;3.13;;;25.00;38.20;;;;;;21131088;28;20330;-61
2023/06/14 19:17:07;;;;;;;6.87;2.97;;;24.50;39.60;;;;;;21131225;28;20272;-61
2023/06/14 19:27:11;;;;;;;5.13;3.23;;;24.00;40.60;;;;;;21119316;28;20239;-62
2023/06/14 19:37:13;;;;;;;4.20;3.00;;;23.60;41.70;;;;;;21119268;28;20214;-62
2023/06/14 19:47:15;;;;;;;6.53;3.30;;;23.10;42.50;;;;;;21127873;28;20234;-64
2023/06/14 19:57:17;;;;;;;7.23;3.30;;;22.80;43.10;;;;;;21116528;28;20203;-66
2023/06/14 20:07:19;;;;;;;5.67;3.47;;;22.60;43.40;;;;;;21116050;28;20233;-64
2023/06/14 20:17:21;;;;;;;9.23;3.50;;;22.20;43.10;;;;;;21122611;28;20652;-62
2023/06/14 20:27:22;;;;;;;4.97;3.40;;;22.00;43.40;;;;;;21119443;28;20238;-62
2023/06/14 20:37:24;;;;;;;5.37;3.30;;;22.00;44.10;;;;;;21080138;28;20202;-64
2023/06/14 20:47:26;;;;;;;7.67;3.60;;;21.90;43.70;;;;;;21079996;28;20660;-65
2023/06/14 20:57:28;;;;;;;5.07;3.40;;;21.80;43.70;;;;;;21079993;28;20206;-68
2023/06/14 21:07:30;;;;;;;4.60;3.57;;;21.60;43.60;;;;;;21078506;28;20241;-71
2023/06/14 21:17:31;;;;;;;5.73;3.57;;;21.40;44.00;;;;;;21078664;28;20229;-65
2023/06/14 21:27:33;;;;;;;5.07;3.40;;;21.30;44.20;;;;;;21078418;28;20233;-68
2023/06/14 21:37:35;;;;;;;6.17;3.30;;;21.20;44.40;;;;;;21077775;28;20198;-70
2023/06/14 21:47:37;;;;;;;3.90;3.50;;;21.00;44.90;;;;;;21080839;28;20760;-68
2023/06/14 21:57:39;;;;;;;8.90;3.80;;;20.90;45.30;;;;;;21093585;28;20281;-69
2023/06/14 22:07:43;;;;;;;8.50;3.40;;;20.60;46.00;;;;;;21074319;28;20708;-73
2023/06/14 22:17:45;;;;;;;4.17;3.47;;;20.50;46.50;;;;;;21091919;28;20214;-72
2023/06/14 22:27:48;;;;;;;4.27;3.20;;;20.20;47.00;;;;;;21091272;28;20328;-65
2023/06/14 22:37:50;;;;;;;6.93;3.33;;;20.00;47.50;;;;;;21089873;28;20288;-64
2023/06/14 22:47:51;;;;;;;5.57;3.10;;;19.90;47.80;;;;;;21089004;28;20273;-64
2023/06/14 22:57:53;;;;;;;6.77;3.17;;;19.80;48.20;;;;;;21088383;28;20205;-64
2023/06/14 23:07:55;;;;;;;8.63;3.93;;;19.70;48.60;;;;;;21087399;28;20243;-65
2023/06/14 23:17:58;;;;;;;4.97;3.33;;;19.60;49.20;;;;;;21086993;28;20213;-64
2023/06/14 23:28:02;;;;;;;3.97;3.57;;;19.40;49.70;;;;;;21086321;28;20232;-66
2023/06/14 23:38:05;;;;;;;6.60;3.13;;;19.30;50.30;;;;;;21085252;28;20296;-65
2023/06/14 23:48:06;;;;;;;3.87;3.20;;;19.10;51.30;;;;;;21084166;28;20280;-69
2023/06/14 23:58:08;;;;;;;6.07;3.77;;;18.90;52.40;;;;;;21084089;28;20228;-65
